Details From EGPC - Wick
To EGPB - Sumburgh
Flight Number -
Tags generated
Created
Modified
Stats Distance 102 nm / 188 km
Max Altitude 0 ft / 0 m
Waypoints 2
Social Downloads 1
Likes 0
Share VATSIM

Download

Looking for another format? Having issues loading an existing format? Contact us
Advertisement - Login to hide

Notes

Basic altitude profile: - Ascent Rate: 2500ft/min - Ascent Speed: 250kts - Cruise Altitude: 35000ft - Cruise Speed: 420kts - Descent Rate: 1500ft/min - Descent Speed: 250kts Options: - Use NATs: no - Use PACOTS: no - Use low airways: no - Use high airways: no

Route

EGPC EGPB

ID Type Via Altitude Latitude Longitude Leg Dist Tot Dist Heading (true) Name
O EGPC APT - 0 ft / 0 m 58.45787˚ -3.09298˚ - 0 nm - Wick
O EGPB APT - 0 ft / 0 m 59.87813˚ -1.29110˚ 101 nm 101 nm 32° / 34° Sumburgh

Altitude Profile

Advertisement - Login to hide

EGPC

Details ICAO EGPC (WIC)
Name Wick
Region United Kingdom
Timezone Europe/London (UTC+0.0)
Stats Elevation 126 ft / 38 m (AMSL)
Location 58.457866° -3.092981°
Runways 2
Magnetic Variation 2.630° W

METAR

EGPC 110420Z AUTO 29005KT 9999 NCD 00/M00 Q0984

Decode

TAF

Not found

Departure Runways

ID Width Length Bearing (true) Bearing (mag) Surface Threshold Offset Overrun Length
08 148 ft / 45 m 3,390 ft / 1,033 m 75.45° 78.08° Asphalt 0 ft / 0 m 0 ft / 0 m
13 148 ft / 45 m 5,978 ft / 1,822 m 127.02° 129.65° Asphalt 814 ft / 248 m 0 ft / 0 m
26 148 ft / 45 m 3,390 ft / 1,033 m 255.46° 258.09° Asphalt 0 ft / 0 m 0 ft / 0 m
31 148 ft / 45 m 5,978 ft / 1,822 m 307.04° 309.67° Asphalt 1,010 ft / 308 m 0 ft / 0 m

EGPB

Details ICAO EGPB (LSI)
Name Sumburgh
Region United Kingdom
Timezone Europe/London (UTC+0.0)
Stats Elevation 20 ft / 6 m (AMSL)
Location 59.878134° -1.291097°
Runways 3
Magnetic Variation 2.055° W

METAR

EGPB 110420Z AUTO 34005KT 9999 NCD 02/M02 Q0984

Decode

TAF

Not found

Destination Runways

ID Width Length Bearing (true) Bearing (mag) Surface Threshold Offset Overrun Length
06 148 ft / 45 m 1,778 ft / 542 m 53.40° 55.45° Asphalt 0 ft / 0 m 0 ft / 0 m
09 148 ft / 45 m 4,911 ft / 1,497 m 83.55° 85.60° Asphalt 344 ft / 105 m 0 ft / 0 m
15 151 ft / 46 m 4,682 ft / 1,427 m 143.46° 145.51° Asphalt 614 ft / 187 m 0 ft / 0 m
24 148 ft / 45 m 1,778 ft / 542 m 233.40° 235.45° Asphalt 0 ft / 0 m 0 ft / 0 m
27 148 ft / 45 m 4,911 ft / 1,497 m 263.57° 265.62° Asphalt 295 ft / 90 m 0 ft / 0 m
33 151 ft / 46 m 4,682 ft / 1,427 m 323.47° 325.52° Asphalt 627 ft / 191 m 0 ft / 0 m

Approach Navaids

Runway Type Ident Frequency Range Bearing (true) Bearing (mag) Slope Elevation
09 Localiser SUB 108.50 MHz 18 nm / 33 km 78.46° 80.51° - 20 ft / 6 m (AMSL)
09 DME SUB 108.50 MHz 18 nm / 33 km - - - 20 ft / 6 m (AMSL)
27 Localiser ISG 108.50 MHz 18 nm / 33 km 259.63° 261.69° - 20 ft / 6 m (AMSL)
27 Glidescope ISG 108.50 MHz 10 nm / 19 km 263.56° 265.61° 3.00° 35 ft / 11 m (AMSL)
27 DME ISG 108.50 MHz 18 nm / 33 km - - - 20 ft / 6 m (AMSL)

Popular Alternatives